Time;durP1;ratioP1;P1;durP2;ratioP2;P2;SDS_P1;SDS_P2;PMS_P1;PMS_P2;Temp;Humidity;BMP_temperature;BMP_pressure;BME280_temperature;BME280_humidity;BME280_pressure;Samples;Min_cycle;Max_cycle;Signal;HPM_P1;HPM_P2
2023/08/08 00:00:47;;;;;;;3.72;2.95;;;14.20;92.80;;;;;;4985435;28;20198;-80
2023/08/08 00:03:15;;;;;;;5.82;2.40;;;14.30;92.70;;;;;;4989225;28;20222;-80
2023/08/08 00:05:42;;;;;;;3.85;3.45;;;14.30;92.40;;;;;;4983951;28;20246;-80
2023/08/08 00:08:09;;;;;;;2.72;2.05;;;14.30;92.40;;;;;;4982300;28;20214;-78
2023/08/08 00:10:36;;;;;;;9.13;3.00;;;14.30;92.90;;;;;;4983205;28;20230;-77
2023/08/08 00:13:03;;;;;;;4.57;2.60;;;14.30;92.80;;;;;;4983377;28;20839;-79
2023/08/08 00:15:31;;;;;;;4.67;3.00;;;14.30;92.60;;;;;;4983359;28;20791;-78
2023/08/08 00:17:58;;;;;;;4.00;2.73;;;14.30;92.60;;;;;;4983488;28;20529;-78
2023/08/08 00:20:24;;;;;;;5.95;3.10;;;14.30;92.70;;;;;;4983499;28;20453;-78
2023/08/08 00:22:52;;;;;;;6.13;3.10;;;14.40;92.50;;;;;;4986557;28;20297;-78
2023/08/08 00:25:19;;;;;;;2.78;2.25;;;14.40;92.40;;;;;;4983136;28;20444;-80
2023/08/08 00:27:46;;;;;;;3.20;2.75;;;14.40;92.20;;;;;;4982431;28;20206;-81
2023/08/08 00:30:13;;;;;;;7.18;3.20;;;14.40;92.20;;;;;;4982992;28;20554;-80
2023/08/08 00:32:40;;;;;;;3.85;2.92;;;14.20;92.60;;;;;;4983161;28;20221;-78
2023/08/08 00:35:07;;;;;;;5.20;3.57;;;14.30;92.30;;;;;;4982742;28;20530;-79
2023/08/08 00:37:35;;;;;;;4.33;2.97;;;14.30;92.10;;;;;;4993160;28;20483;-78
2023/08/08 00:40:02;;;;;;;3.83;2.80;;;14.30;92.00;;;;;;4982576;28;20504;-79
2023/08/08 00:42:29;;;;;;;4.80;2.95;;;14.30;92.30;;;;;;4983333;28;20292;-80
2023/08/08 00:45:01;;;;;;;5.38;2.88;;;14.10;92.20;;;;;;4985128;28;20423;-78
2023/08/08 00:47:28;;;;;;;6.07;2.70;;;14.40;92.10;;;;;;4975789;28;20226;-77
2023/08/08 00:49:56;;;;;;;5.13;2.60;;;14.30;91.90;;;;;;4981548;28;20458;-78
2023/08/08 00:52:25;;;;;;;7.45;3.58;;;14.20;92.00;;;;;;4982772;28;20230;-77
2023/08/08 00:54:52;;;;;;;4.83;2.93;;;14.30;91.70;;;;;;4983417;28;20209;-79
2023/08/08 00:57:20;;;;;;;4.45;2.92;;;14.20;92.10;;;;;;4983056;28;20440;-80
2023/08/08 00:59:47;;;;;;;5.85;3.35;;;14.30;92.00;;;;;;4981745;28;20237;-81
2023/08/08 01:02:15;;;;;;;4.18;3.10;;;14.30;91.60;;;;;;4981656;28;20544;-81
2023/08/08 01:04:42;;;;;;;3.10;2.45;;;14.20;92.10;;;;;;4987510;28;20245;-80
2023/08/08 01:07:33;;;;;;;6.65;3.35;;;14.10;91.90;;;;;;4991276;28;20261;-79
2023/08/08 01:10:09;;;;;;;4.95;3.10;;;14.00;92.50;;;;;;4982897;28;20230;-82
2023/08/08 01:12:40;;;;;;;5.75;2.45;;;13.80;92.80;;;;;;4978825;28;20257;-81
2023/08/08 01:15:10;;;;;;;4.97;2.63;;;13.70;93.20;;;;;;4976765;28;20307;-82
2023/08/08 01:17:38;;;;;;;8.23;2.67;;;13.60;93.20;;;;;;4980852;28;20206;-82
2023/08/08 01:20:07;;;;;;;3.28;2.58;;;13.50;93.60;;;;;;4981003;28;20476;-81
2023/08/08 01:22:45;;;;;;;3.75;3.30;;;13.50;93.30;;;;;;4981037;28;20226;-79
2023/08/08 01:25:12;;;;;;;6.72;3.28;;;13.50;93.50;;;;;;4986785;28;20225;-81
2023/08/08 01:27:39;;;;;;;6.72;3.00;;;13.40;93.60;;;;;;4999822;28;20457;-81
2023/08/08 01:30:07;;;;;;;7.32;2.80;;;13.30;93.90;;;;;;4994439;28;20215;-82
2023/08/08 01:32:34;;;;;;;4.28;2.97;;;13.20;94.30;;;;;;4971246;28;20265;-81
2023/08/08 01:35:02;;;;;;;8.13;3.17;;;13.20;94.40;;;;;;4983864;28;20506;-79
2023/08/08 01:37:35;;;;;;;4.63;3.05;;;13.20;94.20;;;;;;4983103;28;20244;-80
2023/08/08 01:40:04;;;;;;;5.78;3.13;;;13.10;94.40;;;;;;4978999;28;20206;-78
2023/08/08 01:42:32;;;;;;;5.63;3.28;;;13.00;95.20;;;;;;4983097;28;20230;-79
2023/08/08 01:44:59;;;;;;;3.22;2.30;;;12.90;94.70;;;;;;4981754;28;20269;-81
2023/08/08 01:47:26;;;;;;;8.75;3.50;;;12.90;94.90;;;;;;4982666;28;20418;-80
2023/08/08 01:49:53;;;;;;;6.80;2.83;;;12.90;95.00;;;;;;4982700;28;20393;-79
2023/08/08 01:52:22;;;;;;;3.70;2.50;;;12.90;95.00;;;;;;4982001;28;20210;-83
2023/08/08 01:54:49;;;;;;;3.30;2.90;;;12.80;95.00;;;;;;4981839;28;20217;-80
2023/08/08 01:57:16;;;;;;;6.80;2.95;;;12.70;95.30;;;;;;4992137;28;20248;-80
2023/08/08 01:59:45;;;;;;;4.03;2.53;;;12.70;95.70;;;;;;4986757;28;20205;-81
2023/08/08 02:02:12;;;;;;;4.90;2.88;;;12.60;96.00;;;;;;4992590;28;20402;-81
2023/08/08 02:04:40;;;;;;;6.47;3.28;;;12.60;96.00;;;;;;4986338;28;20198;-79
2023/08/08 02:07:06;;;;;;;3.88;2.50;;;12.60;96.00;;;;;;4986897;28;20202;-79
2023/08/08 02:09:34;;;;;;;3.47;2.70;;;12.40;95.80;;;;;;4987053;28;20274;-80
2023/08/08 02:12:01;;;;;;;3.33;2.53;;;12.60;95.90;;;;;;4985890;28;20237;-82
2023/08/08 02:14:28;;;;;;;7.13;3.65;;;12.50;95.70;;;;;;4986210;28;20218;-79
2023/08/08 02:16:55;;;;;;;3.35;2.90;;;12.60;95.80;;;;;;4987646;28;20514;-81
2023/08/08 02:19:22;;;;;;;10.15;3.83;;;12.60;96.00;;;;;;4985534;28;20206;-81
2023/08/08 02:21:50;;;;;;;3.05;2.60;;;12.50;96.20;;;;;;4986710;28;20549;-80
2023/08/08 02:24:17;;;;;;;3.22;3.03;;;12.50;95.70;;;;;;4985984;28;20241;-80
2023/08/08 02:26:44;;;;;;;8.43;3.13;;;12.50;95.50;;;;;;4985889;28;20218;-77
2023/08/08 02:29:11;;;;;;;3.50;2.45;;;12.50;95.60;;;;;;4985052;28;20234;-79
2023/08/08 02:31:38;;;;;;;6.47;3.15;;;12.40;95.90;;;;;;4985585;28;20271;-80
2023/08/08 02:34:05;;;;;;;4.90;3.00;;;12.50;96.30;;;;;;4985315;28;20379;-78
2023/08/08 02:36:33;;;;;;;3.63;2.42;;;12.30;96.10;;;;;;4985546;28;20234;-78
2023/08/08 02:39:00;;;;;;;3.78;2.90;;;12.30;96.20;;;;;;4985265;28;20261;-82
2023/08/08 02:41:27;;;;;;;4.07;3.45;;;12.30;96.20;;;;;;4979906;28;20281;-78
2023/08/08 02:43:54;;;;;;;3.90;2.83;;;12.30;96.30;;;;;;4980466;28;20233;-81
2023/08/08 02:46:21;;;;;;;6.85;3.00;;;12.30;96.30;;;;;;4987182;28;20233;-80
2023/08/08 02:48:48;;;;;;;4.93;3.00;;;12.10;96.20;;;;;;4979730;28;20206;-82
2023/08/08 02:51:15;;;;;;;4.00;2.47;;;12.30;96.00;;;;;;4980644;28;20249;-81
2023/08/08 02:53:42;;;;;;;4.15;2.60;;;12.10;96.40;;;;;;4982559;28;20361;-80
2023/08/08 02:56:09;;;;;;;4.85;3.63;;;12.20;96.20;;;;;;4981109;28;20269;-81
2023/08/08 02:58:36;;;;;;;3.75;2.42;;;12.30;96.60;;;;;;4980950;28;20213;-81
2023/08/08 03:01:03;;;;;;;6.55;2.97;;;12.20;96.00;;;;;;4980281;28;20250;-82
2023/08/08 03:03:31;;;;;;;7.75;3.15;;;12.20;96.10;;;;;;4980441;28;20494;-84
2023/08/08 03:05:57;;;;;;;9.38;2.92;;;12.20;96.10;;;;;;4984433;28;20218;-81
2023/08/08 03:08:24;;;;;;;6.30;2.80;;;12.10;95.90;;;;;;4979480;28;20298;-81
2023/08/08 03:10:51;;;;;;;7.65;3.13;;;12.10;96.00;;;;;;4983658;28;20332;-81
2023/08/08 03:13:19;;;;;;;3.65;2.92;;;12.00;96.00;;;;;;4979966;28;20553;-80
2023/08/08 03:15:46;;;;;;;7.28;4.25;;;12.00;96.20;;;;;;4989122;28;20230;-83
2023/08/08 03:18:13;;;;;;;4.22;3.25;;;12.00;96.10;;;;;;4980485;28;20214;-81
2023/08/08 03:20:41;;;;;;;4.15;3.60;;;12.10;96.20;;;;;;4983729;28;20207;-85
2023/08/08 03:23:07;;;;;;;5.65;2.95;;;12.10;95.70;;;;;;4985320;28;20305;-82
2023/08/08 03:25:34;;;;;;;4.97;2.80;;;12.00;95.90;;;;;;4990903;28;20217;-83
2023/08/08 03:28:02;;;;;;;2.30;2.10;;;12.10;96.10;;;;;;4985693;28;20238;-84
2023/08/08 03:30:28;;;;;;;6.93;3.05;;;12.00;95.80;;;;;;4986019;28;20241;-83
2023/08/08 03:32:55;;;;;;;7.10;3.00;;;12.00;96.10;;;;;;4980100;28;20273;-86
2023/08/08 03:35:23;;;;;;;6.63;3.00;;;11.90;96.00;;;;;;4980921;28;20202;-83
2023/08/08 03:37:49;;;;;;;5.07;3.17;;;12.00;95.80;;;;;;4979830;28;20202;-84
2023/08/08 03:40:17;;;;;;;5.35;2.95;;;11.90;96.00;;;;;;4980682;28;20218;-79
2023/08/08 03:42:44;;;;;;;3.45;2.50;;;11.90;96.00;;;;;;4981861;28;20442;-81
2023/08/08 03:45:11;;;;;;;9.48;3.30;;;11.90;96.10;;;;;;4987295;28;20405;-82
2023/08/08 03:47:38;;;;;;;7.20;3.42;;;11.80;96.10;;;;;;4980502;28;20211;-80
2023/08/08 03:50:07;;;;;;;5.00;3.22;;;11.80;96.30;;;;;;4979248;28;20229;-80
2023/08/08 03:52:35;;;;;;;5.55;3.50;;;11.80;96.40;;;;;;4981115;28;20282;-79
2023/08/08 03:55:03;;;;;;;8.00;3.55;;;12.00;96.30;;;;;;4979404;28;20269;-77
2023/08/08 03:57:31;;;;;;;8.32;3.20;;;11.90;96.40;;;;;;4979023;28;20226;-79
2023/08/08 03:59:58;;;;;;;3.80;2.45;;;11.80;96.40;;;;;;4979148;28;20226;-79
2023/08/08 04:02:25;;;;;;;3.83;2.97;;;11.90;96.50;;;;;;4978745;28;20489;-78
2023/08/08 04:04:52;;;;;;;4.45;2.90;;;12.10;96.20;;;;;;4980456;28;20391;-79
2023/08/08 04:07:19;;;;;;;3.42;2.65;;;12.00;96.20;;;;;;4979064;28;20553;-79
2023/08/08 04:09:46;;;;;;;3.55;3.00;;;12.00;95.90;;;;;;4979711;28;20278;-81
2023/08/08 04:12:13;;;;;;;4.88;3.13;;;12.00;96.10;;;;;;4985142;28;20197;-80
2023/08/08 04:14:40;;;;;;;5.93;3.83;;;12.00;96.30;;;;;;4979748;28;20210;-82
2023/08/08 04:17:07;;;;;;;4.53;3.13;;;12.20;96.20;;;;;;4984778;28;20278;-79
2023/08/08 04:19:34;;;;;;;8.85;3.55;;;12.20;95.80;;;;;;4988104;28;20218;-82
2023/08/08 04:22:03;;;;;;;3.80;2.90;;;12.40;95.30;;;;;;4978434;28;20673;-81
2023/08/08 04:24:29;;;;;;;7.53;2.92;;;12.50;95.20;;;;;;4985489;28;20431;-81
2023/08/08 04:26:56;;;;;;;9.77;3.05;;;12.60;94.80;;;;;;4980459;28;20249;-81
2023/08/08 04:29:23;;;;;;;7.68;3.20;;;12.70;94.40;;;;;;4980729;28;20206;-80
2023/08/08 04:31:52;;;;;;;6.85;2.80;;;12.90;94.00;;;;;;4977641;28;20738;-81
2023/08/08 04:34:21;;;;;;;2.80;2.53;;;13.10;93.60;;;;;;4978738;28;20211;-82
2023/08/08 04:36:48;;;;;;;3.15;2.63;;;13.40;92.70;;;;;;4976486;28;20210;-82
2023/08/08 04:39:15;;;;;;;6.93;3.10;;;13.60;92.20;;;;;;4978870;28;20234;-81
2023/08/08 04:41:42;;;;;;;5.07;2.95;;;13.70;91.80;;;;;;4980970;28;20455;-83
2023/08/08 04:44:09;;;;;;;5.82;2.67;;;14.00;91.80;;;;;;4982999;28;20268;-81
2023/08/08 04:46:39;;;;;;;3.47;2.70;;;14.00;91.10;;;;;;4977796;28;20238;-84
2023/08/08 04:49:07;;;;;;;4.40;3.30;;;14.10;91.00;;;;;;4981571;28;20222;-83
2023/08/08 04:51:34;;;;;;;3.80;3.05;;;14.30;90.60;;;;;;4977153;28;20273;-81
2023/08/08 04:54:01;;;;;;;4.15;3.30;;;14.30;90.30;;;;;;4978030;28;20292;-82
2023/08/08 04:56:29;;;;;;;6.50;2.95;;;14.20;90.50;;;;;;4979940;28;20526;-81
2023/08/08 04:58:58;;;;;;;5.68;2.90;;;14.10;91.00;;;;;;4986325;28;20202;-85
2023/08/08 05:01:35;;;;;;;5.13;3.13;;;14.10;90.70;;;;;;4991639;28;20198;-86
2023/08/08 05:04:05;;;;;;;6.00;2.63;;;14.50;90.40;;;;;;4993907;28;20492;-88
2023/08/08 05:06:35;;;;;;;5.57;2.20;;;14.50;90.00;;;;;;4988713;28;20672;-84
2023/08/08 05:09:09;;;;;;;5.37;3.00;;;14.70;88.50;;;;;;4976497;28;20532;-83
2023/08/08 05:11:36;;;;;;;4.45;2.78;;;14.80;88.50;;;;;;4982376;28;20486;-83
2023/08/08 05:14:03;;;;;;;3.87;2.60;;;14.90;87.80;;;;;;4983318;28;20792;-86
2023/08/08 05:16:30;;;;;;;8.17;2.80;;;15.00;87.90;;;;;;4978858;28;20460;-80
2023/08/08 05:18:58;;;;;;;5.00;2.97;;;15.00;87.00;;;;;;4977103;28;20464;-80
2023/08/08 05:21:25;;;;;;;6.70;2.83;;;15.00;87.20;;;;;;4977453;28;20452;-81
2023/08/08 05:23:52;;;;;;;14.03;3.73;;;15.10;86.30;;;;;;4981517;28;20496;-83
2023/08/08 05:26:25;;;;;;;3.10;2.77;;;15.20;86.20;;;;;;4981997;28;20449;-84
2023/08/08 05:28:52;;;;;;;5.47;2.60;;;15.20;86.30;;;;;;4962671;28;20515;-81
2023/08/08 05:31:19;;;;;;;3.83;2.43;;;15.20;84.40;;;;;;4979008;28;20458;-82
2023/08/08 05:33:48;;;;;;;8.33;2.97;;;15.20;84.90;;;;;;4977285;28;20446;-85
2023/08/08 05:36:15;;;;;;;6.20;2.80;;;15.40;86.50;;;;;;4980087;28;20449;-83
2023/08/08 05:38:42;;;;;;;5.87;2.47;;;15.40;85.20;;;;;;4975739;28;20459;-83
2023/08/08 05:41:09;;;;;;;6.13;2.93;;;15.30;85.90;;;;;;4977989;28;20818;-84
2023/08/08 05:43:36;;;;;;;5.83;3.03;;;15.20;87.40;;;;;;4983332;28;20551;-81
2023/08/08 05:46:03;;;;;;;3.20;2.73;;;15.20;87.20;;;;;;4976933;28;20448;-84
2023/08/08 05:48:31;;;;;;;4.70;2.90;;;15.20;86.70;;;;;;4979211;28;20452;-82
2023/08/08 05:50:59;;;;;;;3.10;2.67;;;15.50;86.30;;;;;;4975830;28;20500;-80
2023/08/08 05:53:30;;;;;;;7.23;3.00;;;15.80;83.80;;;;;;4977351;28;20608;-82
2023/08/08 05:55:58;;;;;;;2.93;2.20;;;16.40;83.50;;;;;;4978229;28;20431;-87
2023/08/08 05:58:25;;;;;;;4.97;3.00;;;16.70;81.70;;;;;;4982223;28;20639;-79
2023/08/08 06:00:52;;;;;;;4.60;2.53;;;16.90;79.20;;;;;;4987823;28;20576;-79
2023/08/08 06:03:19;;;;;;;6.23;2.97;;;17.00;78.10;;;;;;4979351;28;20554;-80
2023/08/08 06:05:46;;;;;;;5.23;2.90;;;16.90;79.30;;;;;;4982822;28;20442;-84
2023/08/08 06:08:15;;;;;;;4.57;3.23;;;16.90;78.70;;;;;;4981125;28;20694;-82
2023/08/08 06:10:44;;;;;;;3.87;2.37;;;16.90;79.00;;;;;;4976338;28;20423;-84
2023/08/08 06:13:11;;;;;;;5.70;2.73;;;17.00;78.30;;;;;;4980176;28;20448;-85
2023/08/08 06:15:37;;;;;;;5.93;3.40;;;17.00;77.90;;;;;;4975084;28;20427;-83
2023/08/08 06:18:05;;;;;;;5.07;2.57;;;17.10;79.00;;;;;;4975531;28;20452;-78
2023/08/08 06:20:35;;;;;;;2.60;2.40;;;17.40;76.80;;;;;;4974991;28;20442;-79
2023/08/08 06:23:02;;;;;;;4.50;2.77;;;17.70;76.20;;;;;;4979824;28;20452;-81
2023/08/08 06:25:31;;;;;;;4.70;3.27;;;18.10;73.00;;;;;;4972493;28;20460;-84
2023/08/08 06:27:58;;;;;;;4.27;2.57;;;18.30;72.00;;;;;;4976837;28;20447;-84
2023/08/08 06:30:25;;;;;;;3.07;2.77;;;18.40;71.60;;;;;;4974839;28;20529;-88
2023/08/08 06:32:54;;;;;;;3.37;2.77;;;18.30;70.60;;;;;;4976414;28;20479;-82
2023/08/08 06:35:26;;;;;;;5.63;2.97;;;18.30;70.10;;;;;;4980165;28;20444;-79
2023/08/08 06:37:54;;;;;;;4.27;3.37;;;18.50;68.50;;;;;;4978350;28;20429;-79
2023/08/08 06:40:21;;;;;;;2.87;2.60;;;18.40;69.20;;;;;;4980960;28;20476;-82
2023/08/08 06:42:48;;;;;;;3.07;2.87;;;18.70;68.80;;;;;;4984028;28;20450;-81
2023/08/08 06:45:15;;;;;;;4.83;2.43;;;18.70;68.50;;;;;;4985827;28;20707;-80
2023/08/08 06:47:42;;;;;;;4.57;2.40;;;18.70;67.10;;;;;;4983616;28;20655;-81
2023/08/08 06:50:09;;;;;;;5.23;3.20;;;18.90;65.10;;;;;;4977540;28;20464;-81
2023/08/08 06:52:37;;;;;;;2.43;2.23;;;18.60;67.80;;;;;;4982936;28;20729;-81
2023/08/08 06:55:04;;;;;;;3.70;3.40;;;18.70;66.20;;;;;;4979767;28;20511;-85
2023/08/08 06:57:33;;;;;;;3.93;2.87;;;19.10;66.40;;;;;;4979319;28;20483;-80
2023/08/08 06:59:59;;;;;;;5.83;2.67;;;19.50;65.00;;;;;;4975991;28;20422;-84
2023/08/08 07:02:26;;;;;;;2.37;2.17;;;20.10;62.60;;;;;;4978206;28;20824;-81
2023/08/08 07:04:56;;;;;;;3.03;2.13;;;20.50;59.50;;;;;;4978922;28;20686;-83
2023/08/08 07:07:23;;;;;;;2.73;2.50;;;20.50;57.60;;;;;;4979579;28;20437;-84
2023/08/08 07:09:52;;;;;;;5.47;2.70;;;20.60;56.70;;;;;;4980921;28;20411;-82
2023/08/08 07:12:20;;;;;;;3.70;3.20;;;20.90;57.70;;;;;;4981271;28;20443;-83
2023/08/08 07:14:47;;;;;;;3.90;1.90;;;20.80;57.50;;;;;;4979350;28;20454;-79
2023/08/08 07:17:14;;;;;;;2.40;2.20;;;20.80;56.60;;;;;;4983787;28;20506;-84
2023/08/08 07:19:41;;;;;;;4.03;2.07;;;21.10;55.40;;;;;;4981055;28;20490;-82
2023/08/08 07:22:08;;;;;;;6.40;2.10;;;20.60;54.50;;;;;;4982496;28;20501;-84
2023/08/08 07:24:35;;;;;;;2.60;2.00;;;20.10;55.00;;;;;;4985774;28;20736;-82
2023/08/08 07:27:04;;;;;;;3.60;1.57;;;20.00;57.70;;;;;;4984827;28;20415;-81
2023/08/08 07:29:31;;;;;;;2.33;2.13;;;20.40;54.80;;;;;;4978667;28;20426;-79
2023/08/08 07:31:58;;;;;;;3.57;2.47;;;20.50;55.90;;;;;;4978109;28;20413;-79
2023/08/08 07:34:25;;;;;;;4.63;2.30;;;20.50;54.10;;;;;;4977912;28;20423;-81
2023/08/08 07:36:54;;;;;;;4.53;2.80;;;20.40;54.30;;;;;;4984604;28;20509;-80
2023/08/08 07:39:22;;;;;;;3.30;2.40;;;20.30;55.60;;;;;;4977829;28;20415;-78
2023/08/08 07:41:49;;;;;;;2.70;2.50;;;20.20;55.20;;;;;;4978822;28;20768;-79
2023/08/08 07:44:21;;;;;;;6.00;3.80;;;20.20;55.20;;;;;;4979270;28;20446;-86
2023/08/08 07:46:47;;;;;;;5.30;2.10;;;20.30;54.00;;;;;;4981363;28;20439;-81
2023/08/08 07:49:14;;;;;;;2.10;1.93;;;20.40;53.70;;;;;;4990087;28;20746;-82
2023/08/08 07:51:42;;;;;;;3.00;2.30;;;20.30;53.70;;;;;;4984468;28;20447;-78
2023/08/08 07:54:10;;;;;;;2.60;2.23;;;21.60;52.20;;;;;;4977366;28;20423;-81
2023/08/08 07:56:39;;;;;;;3.07;2.07;;;23.10;49.20;;;;;;4985079;28;20415;-82
2023/08/08 07:59:05;;;;;;;3.03;2.80;;;24.30;45.50;;;;;;4978769;28;20516;-83
2023/08/08 08:01:32;;;;;;;2.30;1.93;;;24.40;43.80;;;;;;4975436;28;20697;-81
2023/08/08 08:04:00;;;;;;;2.17;1.80;;;23.40;45.30;;;;;;4977660;28;20481;-79
2023/08/08 08:06:27;;;;;;;2.20;2.00;;;22.60;48.20;;;;;;4978300;28;20490;-83
2023/08/08 08:08:54;;;;;;;2.23;2.03;;;21.70;48.40;;;;;;4978291;28;20550;-78
2023/08/08 08:11:21;;;;;;;2.50;1.97;;;22.00;50.40;;;;;;4977160;28;20431;-82
2023/08/08 08:13:50;;;;;;;6.03;3.33;;;22.60;46.30;;;;;;4981375;28;20493;-82
2023/08/08 08:16:18;;;;;;;1.97;1.87;;;22.80;45.70;;;;;;4977177;28;20430;-81
2023/08/08 08:18:45;;;;;;;4.00;1.63;;;22.80;44.30;;;;;;4980594;28;20414;-80
2023/08/08 08:21:13;;;;;;;1.70;1.60;;;23.70;44.00;;;;;;4977545;28;20651;-83
2023/08/08 08:23:40;;;;;;;2.57;1.53;;;24.50;41.30;;;;;;4977819;28;20669;-79
2023/08/08 08:26:07;;;;;;;1.80;1.70;;;24.50;42.40;;;;;;4977454;28;20516;-81
2023/08/08 08:28:34;;;;;;;2.23;2.00;;;23.60;42.90;;;;;;4977876;28;20451;-80
2023/08/08 08:31:06;;;;;;;3.20;1.87;;;23.40;44.40;;;;;;4975482;28;20762;-84
2023/08/08 08:33:32;;;;;;;3.30;1.83;;;23.10;45.80;;;;;;4976309;28;20460;-85
2023/08/08 08:36:00;;;;;;;2.27;1.73;;;22.20;47.90;;;;;;4973099;28;20441;-85
2023/08/08 08:38:26;;;;;;;2.70;2.17;;;21.70;48.30;;;;;;4974925;28;20506;-84
2023/08/08 08:40:56;;;;;;;2.10;1.90;;;21.50;49.60;;;;;;4980810;28;20448;-79
2023/08/08 08:43:23;;;;;;;2.17;1.63;;;21.40;49.60;;;;;;4991317;28;20423;-81
2023/08/08 08:45:53;;;;;;;2.00;1.80;;;20.80;49.50;;;;;;4993591;28;20414;-83
2023/08/08 08:48:21;;;;;;;2.40;2.10;;;20.60;51.20;;;;;;4992360;28;20418;-79
2023/08/08 08:50:49;;;;;;;1.80;1.67;;;20.50;51.20;;;;;;4984163;28;21120;-82
2023/08/08 08:53:17;;;;;;;2.00;1.90;;;20.50;51.60;;;;;;4978864;28;20491;-79
2023/08/08 08:55:46;;;;;;;1.57;1.47;;;20.50;53.20;;;;;;4980609;28;20518;-82
2023/08/08 08:58:16;;;;;;;1.73;1.63;;;20.60;52.10;;;;;;4987346;28;20458;-80
2023/08/08 09:00:46;;;;;;;3.70;1.90;;;21.30;51.60;;;;;;4982887;28;20483;-85
2023/08/08 09:03:13;;;;;;;4.87;4.47;;;22.30;51.10;;;;;;4981032;28;20517;-82
2023/08/08 09:05:41;;;;;;;2.20;2.00;;;22.10;49.40;;;;;;4978925;28;20452;-79
2023/08/08 09:08:14;;;;;;;2.40;1.90;;;21.60;49.60;;;;;;4977982;28;20415;-82
2023/08/08 09:10:42;;;;;;;3.10;2.27;;;21.80;48.30;;;;;;4976008;28;20438;-78
2023/08/08 09:13:10;;;;;;;3.50;1.70;;;22.40;48.30;;;;;;4973506;28;20440;-80
2023/08/08 09:15:36;;;;;;;4.10;2.77;;;22.70;46.10;;;;;;4977804;28;20535;-79
2023/08/08 09:18:04;;;;;;;1.97;1.87;;;22.90;45.80;;;;;;4978950;28;20534;-80
2023/08/08 09:20:31;;;;;;;1.87;1.70;;;23.00;47.70;;;;;;4978738;28;20426;-82
2023/08/08 09:22:58;;;;;;;1.60;1.50;;;22.70;46.00;;;;;;4979379;28;20431;-78
2023/08/08 09:25:26;;;;;;;2.17;1.60;;;23.10;45.50;;;;;;4979358;28;20650;-78
2023/08/08 09:27:56;;;;;;;2.33;2.13;;;23.40;46.50;;;;;;4977253;28;20632;-81
2023/08/08 09:30:23;;;;;;;2.50;1.80;;;23.70;45.00;;;;;;4975820;28;20624;-81
2023/08/08 09:32:50;;;;;;;4.50;3.10;;;23.40;45.60;;;;;;4975837;28;20661;-80
2023/08/08 09:35:18;;;;;;;2.70;2.50;;;23.00;47.20;;;;;;4976153;28;20554;-79
2023/08/08 09:37:46;;;;;;;3.37;2.10;;;22.90;47.00;;;;;;4974709;28;21040;-81
2023/08/08 09:40:13;;;;;;;2.60;2.10;;;23.00;46.90;;;;;;4975508;28;20497;-81
2023/08/08 09:42:41;;;;;;;10.67;2.50;;;23.20;46.30;;;;;;4976294;28;20486;-80
2023/08/08 09:45:09;;;;;;;2.20;1.90;;;23.10;47.80;;;;;;4973415;28;20480;-78
2023/08/08 09:47:37;;;;;;;2.50;1.77;;;23.10;46.70;;;;;;4975352;28;21021;-81
2023/08/08 09:50:07;;;;;;;3.00;1.70;;;23.10;46.90;;;;;;4975637;28;20494;-85
2023/08/08 09:52:35;;;;;;;3.00;1.70;;;23.30;46.20;;;;;;4977673;28;20432;-80
2023/08/08 09:55:03;;;;;;;1.80;1.70;;;23.00;46.00;;;;;;4984619;28;20451;-79
2023/08/08 09:57:31;;;;;;;2.13;1.90;;;22.50;47.00;;;;;;4979389;28;20453;-84
2023/08/08 09:59:58;;;;;;;2.90;2.20;;;22.30;47.30;;;;;;4972631;28;20531;-77
2023/08/08 10:02:25;;;;;;;3.30;2.10;;;22.30;49.20;;;;;;4977938;28;20422;-81
2023/08/08 10:04:53;;;;;;;5.30;1.67;;;22.00;48.70;;;;;;4975060;28;20484;-78
2023/08/08 10:07:22;;;;;;;8.87;2.40;;;22.10;50.20;;;;;;4975934;28;20512;-80
2023/08/08 10:09:49;;;;;;;1.73;1.63;;;22.00;48.50;;;;;;4976549;28;20462;-81
2023/08/08 10:12:16;;;;;;;3.37;1.70;;;21.70;49.50;;;;;;4973922;28;20439;-79
2023/08/08 10:14:45;;;;;;;10.53;2.27;;;21.40;49.60;;;;;;4978171;28;20483;-83
2023/08/08 10:17:17;;;;;;;4.10;2.10;;;21.40;50.60;;;;;;4980134;28;20461;-80
2023/08/08 10:19:57;;;;;;;3.03;2.20;;;21.10;50.90;;;;;;4981587;28;20448;-83
2023/08/08 10:22:24;;;;;;;4.40;1.90;;;21.00;51.60;;;;;;4980425;28;20417;-79
2023/08/08 10:24:53;;;;;;;2.60;2.13;;;21.00;50.60;;;;;;4979628;28;20419;-78
2023/08/08 10:27:37;;;;;;;5.60;2.00;;;21.10;50.60;;;;;;4982595;28;20714;-82
2023/08/08 10:30:09;;;;;;;2.37;2.17;;;21.40;50.10;;;;;;4980319;28;20506;-80
2023/08/08 10:32:44;;;;;;;4.10;2.27;;;21.50;50.20;;;;;;4982692;28;20697;-78
2023/08/08 10:35:14;;;;;;;2.53;2.33;;;21.90;50.70;;;;;;4979785;28;20518;-80
2023/08/08 10:37:53;;;;;;;5.80;2.80;;;21.60;51.20;;;;;;4980538;28;20442;-78
2023/08/08 10:40:20;;;;;;;1.67;1.57;;;21.60;51.50;;;;;;4981056;28;20743;-83
2023/08/08 10:42:47;;;;;;;3.17;2.10;;;21.30;51.90;;;;;;4976750;28;20512;-87
2023/08/08 10:45:16;;;;;;;2.20;2.00;;;21.50;51.00;;;;;;4978767;28;20423;-82
2023/08/08 10:47:45;;;;;;;3.10;2.10;;;21.50;50.10;;;;;;4990921;28;20422;-82
2023/08/08 10:50:21;;;;;;;2.77;1.83;;;21.60;50.90;;;;;;4978618;28;20491;-81
2023/08/08 10:52:52;;;;;;;2.53;2.20;;;21.80;49.20;;;;;;4978830;28;20656;-87
2023/08/08 10:55:25;;;;;;;2.00;1.80;;;21.60;49.90;;;;;;4968339;28;20838;-78
2023/08/08 10:57:59;;;;;;;2.20;2.00;;;21.50;51.40;;;;;;4975879;28;20419;-84
2023/08/08 11:00:30;;;;;;;1.87;1.77;;;21.50;49.90;;;;;;4977656;28;20656;-83
2023/08/08 11:02:57;;;;;;;1.97;1.80;;;21.10;51.90;;;;;;4980268;28;20787;-82
2023/08/08 11:05:27;;;;;;;3.70;2.10;;;21.20;51.20;;;;;;4978033;28;20456;-84
2023/08/08 11:07:55;;;;;;;6.30;2.10;;;21.10;52.30;;;;;;4978841;28;20478;-85
2023/08/08 11:10:22;;;;;;;2.30;2.00;;;20.90;51.80;;;;;;4976928;28;20481;-78
2023/08/08 11:13:01;;;;;;;2.73;2.20;;;20.80;51.70;;;;;;4979083;28;20552;-79
2023/08/08 11:15:28;;;;;;;3.97;2.40;;;21.00;54.90;;;;;;4978302;28;20502;-80
2023/08/08 11:17:56;;;;;;;2.27;2.07;;;20.90;53.20;;;;;;4978743;28;20449;-78
2023/08/08 11:20:24;;;;;;;1.70;1.60;;;20.70;55.90;;;;;;4983244;28;20444;-80
2023/08/08 11:22:55;;;;;;;5.27;2.90;;;20.80;53.90;;;;;;4981245;28;20423;-81
2023/08/08 11:25:28;;;;;;;3.43;2.90;;;21.20;53.70;;;;;;4981430;28;20446;-86
2023/08/08 11:27:57;;;;;;;3.73;2.07;;;21.20;55.50;;;;;;4979329;28;20468;-80
2023/08/08 11:30:29;;;;;;;8.53;2.67;;;21.20;54.40;;;;;;4974538;28;20478;-83
2023/08/08 11:32:56;;;;;;;6.57;2.50;;;21.00;54.80;;;;;;4978109;28;21093;-80
2023/08/08 11:35:27;;;;;;;3.60;2.60;;;20.70;54.40;;;;;;4980913;28;20449;-77
2023/08/08 11:37:57;;;;;;;3.10;2.30;;;20.60;54.30;;;;;;4976226;28;20784;-82
2023/08/08 11:40:26;;;;;;;2.87;2.43;;;21.00;55.80;;;;;;4977200;28;20522;-78
2023/08/08 11:42:55;;;;;;;3.60;2.40;;;21.10;54.30;;;;;;4981492;28;20438;-81
2023/08/08 11:45:23;;;;;;;3.50;3.13;;;21.20;53.70;;;;;;4978505;28;20835;-81
2023/08/08 11:47:52;;;;;;;4.63;4.23;;;21.00;53.80;;;;;;4977191;28;20816;-79
2023/08/08 11:50:24;;;;;;;2.30;1.93;;;21.10;54.60;;;;;;4976498;28;20489;-83
2023/08/08 11:52:53;;;;;;;4.30;1.80;;;21.50;56.20;;;;;;4979264;28;20431;-79
2023/08/08 11:55:26;;;;;;;3.10;2.40;;;21.80;52.30;;;;;;4989845;28;20491;-84
2023/08/08 11:58:01;;;;;;;4.57;2.77;;;22.00;52.90;;;;;;4991569;28;20415;-78
2023/08/08 12:00:32;;;;;;;3.23;2.93;;;21.90;52.80;;;;;;4989170;28;20414;-80
2023/08/08 12:03:01;;;;;;;2.63;2.33;;;22.10;52.10;;;;;;4978197;28;20529;-86
2023/08/08 12:05:29;;;;;;;4.00;2.27;;;22.20;52.40;;;;;;4971862;28;20449;-79
2023/08/08 12:07:58;;;;;;;5.07;2.30;;;22.10;52.00;;;;;;4981747;28;20423;-78
2023/08/08 12:10:25;;;;;;;2.40;2.20;;;22.10;52.30;;;;;;4978944;28;20647;-79
2023/08/08 12:12:59;;;;;;;2.93;2.63;;;22.00;53.60;;;;;;4979832;28;20719;-80
2023/08/08 12:15:35;;;;;;;4.83;4.43;;;21.60;53.30;;;;;;4978787;28;20457;-84
2023/08/08 12:18:04;;;;;;;3.47;2.93;;;21.30;54.20;;;;;;4979753;28;20474;-85
2023/08/08 12:20:31;;;;;;;3.17;2.50;;;21.50;55.50;;;;;;4977541;28;20427;-79
2023/08/08 12:22:59;;;;;;;3.53;2.80;;;21.90;53.40;;;;;;4980838;28;21006;-78
2023/08/08 12:25:27;;;;;;;2.97;1.90;;;22.20;51.60;;;;;;4974408;28;20447;-78
2023/08/08 12:27:54;;;;;;;2.70;2.27;;;22.10;53.10;;;;;;4978362;28;20452;-80
2023/08/08 12:30:21;;;;;;;4.00;2.13;;;22.00;53.10;;;;;;4978507;28;20415;-78
2023/08/08 12:32:49;;;;;;;4.23;2.13;;;22.00;52.60;;;;;;4984469;28;20515;-80
2023/08/08 12:35:16;;;;;;;11.93;2.63;;;22.10;53.70;;;;;;4989846;28;20480;-86
2023/08/08 12:37:43;;;;;;;2.40;2.10;;;22.50;51.70;;;;;;4992057;28;20444;-82
2023/08/08 12:40:11;;;;;;;2.67;2.47;;;22.30;51.40;;;;;;4983486;28;20672;-81
2023/08/08 12:42:38;;;;;;;3.17;2.60;;;22.30;51.90;;;;;;4972666;28;20431;-79
2023/08/08 12:45:06;;;;;;;2.70;2.23;;;22.60;53.00;;;;;;4972416;28;20789;-80
2023/08/08 12:47:37;;;;;;;2.33;2.20;;;22.60;51.70;;;;;;4977583;28;20456;-81
2023/08/08 12:50:05;;;;;;;2.53;2.33;;;22.70;52.60;;;;;;4976360;28;20470;-79